OOCL Kaohsiung — 9V9830 — position and weather

sailwx.info

Track history (hours):
 
Tides and Currents Weather Stations Pressure Air Temp Water Temp Dewpoint Dewpoint Depression Visibility Wind Speed Wind Dir Waves Ship Positions

OOCL Kaohsiung

Last reported at 2017-May-22 03:02 UTC. Time now 2017-May-22 23:26 UTC.
Position N 01°15' E 104°06'.

Length 280 m; draft 13.4 m.

Type: Ship. MMSI: 566389000.

Date/timePositionNaut miles runAvg speedWind from/ knotsBaromVisibWave heightAir tempDewpointWater temp
2017-May-22 03:02N 01°15' E 104°06'120.1
2017-May-22 02:58N 01°15' E 104°05'920.1
2017-May-22 02:30N 01°13' E 103°56'1019.2
2017-May-22 02:00N 01°09' E 103°47'918.9
2017-May-22 01:30N 01°03' E 103°40'917.4
2017-May-22 01:00N 01°07' E 103°32'917.9
2017-May-22 00:30N 01°11' E 103°24'1018.5
2017-May-21 23:56N 01°19' E 103°17'3518.3
2017-May-21 22:03N 01°38' E 102°48'418.6
2017-May-21 21:51N 01°40' E 102°45'1218.4
2017-May-21 21:11N 01°45' E 102°34'318.5
2017-May-21 21:00N 01°46' E 102°31'918.6
2017-May-21 20:30N 01°50' E 102°22'70 2.6
2017-May-20 17:52N 01°15' E 103°23'918.8
2017-May-20 17:24N 01°12' E 103°32'615.8
2017-May-20 17:00N 01°12' E 103°38'510.7
2017-May-20 16:30N 01°15' E 103°43'4 8.1
2017-May-20 16:01N 01°16' E 103°47'0 0.4
2017-May-20 15:28N 01°16' E 103°47'0 0.0
2017-May-20 14:58N 01°16' E 103°47'0 0.0
2017-May-20 14:28N 01°16' E 103°47'0 0.0
2017-May-20 13:28N 01°16' E 103°47'0 0.0
2017-May-20 12:58N 01°16' E 103°47'0 0.0
2017-May-20 12:28N 01°16' E 103°47'0 0.0
2017-May-20 11:55N 01°16' E 103°47'0 0.0
2017-May-20 11:28N 01°16' E 103°47'0 0.0
2017-May-20 10:58N 01°16' E 103°47'0 0.0
2017-May-20 10:28N 01°16' E 103°47'0 0.0
2017-May-20 09:58N 01°16' E 103°47'0 0.0
2017-May-20 09:28N 01°16' E 103°47'0 0.0
2017-May-20 08:58N 01°16' E 103°47'0 0.0
2017-May-20 08:28N 01°16' E 103°47'0 0.0
2017-May-20 07:58N 01°16' E 103°47'0 0.0
2017-May-20 07:28N 01°16' E 103°47'0 0.0
2017-May-20 06:58N 01°16' E 103°47'0 0.0
2017-May-20 06:25N 01°16' E 103°47'0 0.0
2017-May-20 05:52N 01°16' E 103°47'0 0.2
2017-May-20 05:30N 01°16' E 103°47'0 0.9
2017-May-20 05:00N 01°16' E 103°47'0 0.3
2017-May-20 04:30N 01°16' E 103°47'1 1.2
2017-May-20 04:00N 01°15' E 103°47'3 5.4
2017-May-20 03:30N 01°13' E 103°48'4 7.5
2017-May-20 03:00N 01°13' E 103°52'3 6.0
2017-May-20 02:30N 01°16' E 103°51'1 1.4
2017-May-20 01:57N 01°16' E 103°50'0 0.0
2017-May-20 01:27N 01°16' E 103°50'0 0.0
2017-May-20 00:57N 01°16' E 103°50'0 0.0
2017-May-20 00:24N 01°16' E 103°50'0 0.0
2017-May-20 00:00N 01°16' E 103°50'0 0.0
2017-May-19 23:30N 01°16' E 103°50'0 0.0
2017-May-19 23:00N 01°16' E 103°50'0 0.0
2017-May-19 22:30N 01°16' E 103°50'0 0.0
2017-May-19 21:57N 01°16' E 103°50'0 0.0
2017-May-19 21:30N 01°16' E 103°50'0 0.0
2017-May-19 20:58N 01°16' E 103°50'0 0.0
2017-May-19 20:28N 01°16' E 103°50'0 0.0
2017-May-19 19:58N 01°16' E 103°50'0 0.0
2017-May-19 19:28N 01°16' E 103°50'0 0.0
2017-May-19 18:58N 01°16' E 103°50'0 0.0
2017-May-19 18:28N 01°16' E 103°50'0 0.0
2017-May-19 17:58N 01°16' E 103°50'0 0.0
2017-May-19 17:28N 01°16' E 103°50'0 0.0
2017-May-19 16:58N 01°16' E 103°50'0 0.0
2017-May-19 16:28N 01°16' E 103°50'0 0.0
2017-May-19 15:55N 01°16' E 103°50'0 0.0
2017-May-19 15:28N 01°16' E 103°50'0 0.0
2017-May-19 14:52N 01°16' E 103°50'0 0.0
2017-May-19 13:58N 01°16' E 103°50'0 0.0
2017-May-19 13:28N 01°16' E 103°50'0 0.0
2017-May-19 12:58N 01°16' E 103°50'0 0.0
2017-May-19 12:28N 01°16' E 103°50'0 0.0
2017-May-19 11:58N 01°16' E 103°50'0 0.0
2017-May-19 11:28N 01°16' E 103°50'0 0.0
2017-May-19 11:01N 01°16' E 103°50'0 0.0
2017-May-19 10:31N 01°16' E 103°50'1 1.6
2017-May-19 10:00N 01°16' E 103°51'3 6.3
2017-May-19 09:31N 01°14' E 103°53'4 7.3
2017-May-19 09:00N 01°15' E 103°57'611.5
2017-May-19 08:30N 01°16' E 104°03'  
2017-May-13 02:30N 01°15' E 104°06'1019.0
2017-May-13 02:00N 01°14' E 103°56'713.1
2017-May-13 01:30N 01°11' E 103°50'3 6.7
2017-May-13 01:00N 01°13' E 103°47'3 5.7
2017-May-13 00:30N 01°16' E 103°47'1 1.1
2017-May-13 00:00N 01°16' E 103°47'0 0.0
2017-May-12 23:30N 01°16' E 103°47'0 0.0
2017-May-12 23:00N 01°16' E 103°47'0 0.0
2017-May-12 22:30N 01°16' E 103°47'0 0.0
2017-May-12 22:00N 01°16' E 103°47'0 0.0
2017-May-12 21:27N 01°16' E 103°47'0 0.0
2017-May-12 20:57N 01°16' E 103°47'0 0.0
2017-May-12 20:30N 01°16' E 103°47'0 0.0
2017-May-12 20:00N 01°16' E 103°47'0 0.0
2017-May-12 19:30N 01°16' E 103°47'0 0.0
2017-May-12 19:00N 01°16' E 103°47'0 0.0
2017-May-12 18:30N 01°16' E 103°47'0 0.0
2017-May-12 18:00N 01°16' E 103°47'0 0.0
2017-May-12 17:27N 01°16' E 103°47'0 0.0
2017-May-12 16:54N 01°16' E 103°47'0 0.0
2017-May-12 16:30N 01°16' E 103°47'0 0.0
2017-May-12 16:00N 01°16' E 103°47'0 0.0
2017-May-12 15:27N 01°16' E 103°47'0 0.0
2017-May-12 15:00N 01°16' E 103°47'0 0.0
2017-May-12 14:30N 01°16' E 103°47'0 0.0
2017-May-12 13:30N 01°16' E 103°47'0 0.0
2017-May-12 13:00N 01°16' E 103°47'0 0.0
2017-May-12 12:30N 01°16' E 103°47'0 0.0
2017-May-12 12:00N 01°16' E 103°47'0 0.0
2017-May-12 11:30N 01°16' E 103°47'0 0.0
2017-May-12 11:00N 01°16' E 103°47'0 0.0
2017-May-12 10:30N 01°16' E 103°47'0 0.0
2017-May-12 09:57N 01°16' E 103°47'0 0.0
2017-May-12 09:27N 01°16' E 103°47'0 0.0
2017-May-12 08:57N 01°16' E 103°47'0 0.0
2017-May-12 08:30N 01°16' E 103°47'0 0.0
2017-May-12 08:00N 01°16' E 103°47'0 0.0
2017-May-12 07:30N 01°16' E 103°47'0 0.0
2017-May-12 06:57N 01°16' E 103°47'0 0.0
2017-May-12 06:30N 01°16' E 103°47'0 0.0
2017-May-12 05:57N 01°16' E 103°47'0 0.0
2017-May-12 05:30N 01°16' E 103°47'0 0.0
2017-May-12 05:00N 01°16' E 103°47'0 0.0
2017-May-12 04:30N 01°16' E 103°47'0 0.0
2017-May-12 04:00N 01°16' E 103°47'0 0.0
2017-May-12 03:30N 01°16' E 103°47'  
Track history (hours):
 
Tides and Currents Weather Stations Pressure Air Temp Water Temp Dewpoint Dewpoint Depression Visibility Wind Speed Wind Dir Waves Ship Positions

OOCL Kaohsiung

Last reported at 2017-May-22 03:02 UTC. Time now 2017-May-22 23:26 UTC.
Position N 01°15' E 104°06'.

Length 280 m; draft 13.4 m.

Type: Ship. MMSI: 566389000.

Date/timePositionNaut miles runAvg speedWind from/ knotsBaromVisibWave heightAir tempDewpointWater temp
2017-May-22 03:02N 01°15' E 104°06'120.1
2017-May-22 02:58N 01°15' E 104°05'920.1
2017-May-22 02:30N 01°13' E 103°56'1019.2
2017-May-22 02:00N 01°09' E 103°47'918.9
2017-May-22 01:30N 01°03' E 103°40'917.4
2017-May-22 01:00N 01°07' E 103°32'917.9
2017-May-22 00:30N 01°11' E 103°24'1018.5
2017-May-21 23:56N 01°19' E 103°17'3518.3
2017-May-21 22:03N 01°38' E 102°48'418.6
2017-May-21 21:51N 01°40' E 102°45'1218.4
2017-May-21 21:11N 01°45' E 102°34'318.5
2017-May-21 21:00N 01°46' E 102°31'918.6
2017-May-21 20:30N 01°50' E 102°22'70 2.6
2017-May-20 17:52N 01°15' E 103°23'918.8
2017-May-20 17:24N 01°12' E 103°32'615.8
2017-May-20 17:00N 01°12' E 103°38'510.7
2017-May-20 16:30N 01°15' E 103°43'4 8.1
2017-May-20 16:01N 01°16' E 103°47'0 0.4
2017-May-20 15:28N 01°16' E 103°47'0 0.0
2017-May-20 14:58N 01°16' E 103°47'0 0.0
2017-May-20 14:28N 01°16' E 103°47'0 0.0
2017-May-20 13:28N 01°16' E 103°47'0 0.0
2017-May-20 12:58N 01°16' E 103°47'0 0.0
2017-May-20 12:28N 01°16' E 103°47'0 0.0
2017-May-20 11:55N 01°16' E 103°47'0 0.0
2017-May-20 11:28N 01°16' E 103°47'0 0.0
2017-May-20 10:58N 01°16' E 103°47'0 0.0
2017-May-20 10:28N 01°16' E 103°47'0 0.0
2017-May-20 09:58N 01°16' E 103°47'0 0.0
2017-May-20 09:28N 01°16' E 103°47'0 0.0
2017-May-20 08:58N 01°16' E 103°47'0 0.0
2017-May-20 08:28N 01°16' E 103°47'0 0.0
2017-May-20 07:58N 01°16' E 103°47'0 0.0
2017-May-20 07:28N 01°16' E 103°47'0 0.0
2017-May-20 06:58N 01°16' E 103°47'0 0.0
2017-May-20 06:25N 01°16' E 103°47'0 0.0
2017-May-20 05:52N 01°16' E 103°47'0 0.2
2017-May-20 05:30N 01°16' E 103°47'0 0.9
2017-May-20 05:00N 01°16' E 103°47'0 0.3
2017-May-20 04:30N 01°16' E 103°47'1 1.2
2017-May-20 04:00N 01°15' E 103°47'3 5.4
2017-May-20 03:30N 01°13' E 103°48'4 7.5
2017-May-20 03:00N 01°13' E 103°52'3 6.0
2017-May-20 02:30N 01°16' E 103°51'1 1.4
2017-May-20 01:57N 01°16' E 103°50'0 0.0
2017-May-20 01:27N 01°16' E 103°50'0 0.0
2017-May-20 00:57N 01°16' E 103°50'0 0.0
2017-May-20 00:24N 01°16' E 103°50'0 0.0
2017-May-20 00:00N 01°16' E 103°50'0 0.0
2017-May-19 23:30N 01°16' E 103°50'0 0.0
2017-May-19 23:00N 01°16' E 103°50'0 0.0
2017-May-19 22:30N 01°16' E 103°50'0 0.0
2017-May-19 21:57N 01°16' E 103°50'0 0.0
2017-May-19 21:30N 01°16' E 103°50'0 0.0
2017-May-19 20:58N 01°16' E 103°50'0 0.0
2017-May-19 20:28N 01°16' E 103°50'0 0.0
2017-May-19 19:58N 01°16' E 103°50'0 0.0
2017-May-19 19:28N 01°16' E 103°50'0 0.0
2017-May-19 18:58N 01°16' E 103°50'0 0.0
2017-May-19 18:28N 01°16' E 103°50'0 0.0
2017-May-19 17:58N 01°16' E 103°50'0 0.0
2017-May-19 17:28N 01°16' E 103°50'0 0.0
2017-May-19 16:58N 01°16' E 103°50'0 0.0
2017-May-19 16:28N 01°16' E 103°50'0 0.0
2017-May-19 15:55N 01°16' E 103°50'0 0.0
2017-May-19 15:28N 01°16' E 103°50'0 0.0
2017-May-19 14:52N 01°16' E 103°50'0 0.0
2017-May-19 13:58N 01°16' E 103°50'0 0.0
2017-May-19 13:28N 01°16' E 103°50'0 0.0
2017-May-19 12:58N 01°16' E 103°50'0 0.0
2017-May-19 12:28N 01°16' E 103°50'0 0.0
2017-May-19 11:58N 01°16' E 103°50'0 0.0
2017-May-19 11:28N 01°16' E 103°50'0 0.0
2017-May-19 11:01N 01°16' E 103°50'0 0.0
2017-May-19 10:31N 01°16' E 103°50'1 1.6
2017-May-19 10:00N 01°16' E 103°51'3 6.3
2017-May-19 09:31N 01°14' E 103°53'4 7.3
2017-May-19 09:00N 01°15' E 103°57'611.5
2017-May-19 08:30N 01°16' E 104°03'  
2017-May-13 02:30N 01°15' E 104°06'1019.0
2017-May-13 02:00N 01°14' E 103°56'713.1
2017-May-13 01:30N 01°11' E 103°50'3 6.7
2017-May-13 01:00N 01°13' E 103°47'3 5.7
2017-May-13 00:30N 01°16' E 103°47'1 1.1
2017-May-13 00:00N 01°16' E 103°47'0 0.0
2017-May-12 23:30N 01°16' E 103°47'0 0.0
2017-May-12 23:00N 01°16' E 103°47'0 0.0
2017-May-12 22:30N 01°16' E 103°47'0 0.0
2017-May-12 22:00N 01°16' E 103°47'0 0.0
2017-May-12 21:27N 01°16' E 103°47'0 0.0
2017-May-12 20:57N 01°16' E 103°47'0 0.0
2017-May-12 20:30N 01°16' E 103°47'0 0.0
2017-May-12 20:00N 01°16' E 103°47'0 0.0
2017-May-12 19:30N 01°16' E 103°47'0 0.0
2017-May-12 19:00N 01°16' E 103°47'0 0.0
2017-May-12 18:30N 01°16' E 103°47'0 0.0
2017-May-12 18:00N 01°16' E 103°47'0 0.0
2017-May-12 17:27N 01°16' E 103°47'0 0.0
2017-May-12 16:54N 01°16' E 103°47'0 0.0
2017-May-12 16:30N 01°16' E 103°47'0 0.0
2017-May-12 16:00N 01°16' E 103°47'0 0.0
2017-May-12 15:27N 01°16' E 103°47'0 0.0
2017-May-12 15:00N 01°16' E 103°47'0 0.0
2017-May-12 14:30N 01°16' E 103°47'0 0.0
2017-May-12 13:30N 01°16' E 103°47'0 0.0
2017-May-12 13:00N 01°16' E 103°47'0 0.0
2017-May-12 12:30N 01°16' E 103°47'0 0.0
2017-May-12 12:00N 01°16' E 103°47'0 0.0
2017-May-12 11:30N 01°16' E 103°47'0 0.0
2017-May-12 11:00N 01°16' E 103°47'0 0.0
2017-May-12 10:30N 01°16' E 103°47'0 0.0
2017-May-12 09:57N 01°16' E 103°47'0 0.0
2017-May-12 09:27N 01°16' E 103°47'0 0.0
2017-May-12 08:57N 01°16' E 103°47'0 0.0
2017-May-12 08:30N 01°16' E 103°47'0 0.0
2017-May-12 08:00N 01°16' E 103°47'0 0.0
2017-May-12 07:30N 01°16' E 103°47'0 0.0
2017-May-12 06:57N 01°16' E 103°47'0 0.0
2017-May-12 06:30N 01°16' E 103°47'0 0.0
2017-May-12 05:57N 01°16' E 103°47'0 0.0
2017-May-12 05:30N 01°16' E 103°47'0 0.0
2017-May-12 05:00N 01°16' E 103°47'0 0.0
2017-May-12 04:30N 01°16' E 103°47'0 0.0
2017-May-12 04:00N 01°16' E 103°47'0 0.0
2017-May-12 03:30N 01°16' E 103°47'  

Dump ship's entire track history